createdAt,value
2022-12-17T00:02:38.737Z,102131.94
2022-12-17T00:05:21.346Z,102128.69
2022-12-17T00:08:11.641Z,102127.66
2022-12-17T00:10:53.592Z,102135.38
2022-12-17T00:13:37.072Z,102135.97
2022-12-17T00:16:22.976Z,102140.81
2022-12-17T00:19:05.036Z,102135.22
2022-12-17T00:21:46.994Z,102136.13
2022-12-17T00:24:31.532Z,102145.28
2022-12-17T00:27:13.543Z,102140.91
2022-12-17T00:30:10.130Z,102147.41
2022-12-17T00:32:52.101Z,102146.00
2022-12-17T00:35:34.091Z,102146.13
2022-12-17T00:38:16.165Z,102149.56
2022-12-17T00:41:05.894Z,102161.22
2022-12-17T00:43:47.870Z,102156.69
2022-12-17T00:46:29.788Z,102169.88
2022-12-17T00:49:11.816Z,102181.09
2022-12-17T00:51:53.830Z,102174.03
2022-12-17T00:54:35.939Z,102175.78
2022-12-17T00:57:20.542Z,102171.78
2022-12-17T01:00:02.536Z,102181.31
2022-12-17T01:02:44.606Z,102193.03
2022-12-17T01:05:27.637Z,102199.28
2022-12-17T01:08:09.752Z,102198.03
2022-12-17T01:10:52.693Z,102201.06
2022-12-17T01:13:37.636Z,102188.81
2022-12-17T01:16:20.313Z,102171.31
2022-12-17T01:19:02.323Z,102177.63
2022-12-17T01:21:44.353Z,102175.38
2022-12-17T01:24:26.459Z,102194.03
2022-12-17T01:27:08.390Z,102219.56
2022-12-17T01:29:54.234Z,102228.53
2022-12-17T01:32:36.151Z,102253.69
2022-12-17T01:35:18.170Z,102266.69
2022-12-17T01:38:00.707Z,102280.56
2022-12-17T01:40:42.675Z,102293.06
2022-12-17T01:43:27.022Z,102301.84
2022-12-17T01:46:11.639Z,102301.81
2022-12-17T01:49:02.995Z,102292.38
2022-12-17T01:51:45.399Z,102297.13
2022-12-17T01:54:27.687Z,102296.56
2022-12-17T01:57:09.939Z,102303.06
2022-12-17T01:59:57.889Z,102302.38
2022-12-17T02:02:42.581Z,102295.56
2022-12-17T02:05:24.655Z,102294.69
2022-12-17T02:08:13.925Z,102298.19
2022-12-17T02:11:00.868Z,102289.44
2022-12-17T02:13:46.699Z,102286.81
2022-12-17T02:16:31.707Z,102279.16
2022-12-17T02:19:21.957Z,102280.41
2022-12-17T02:22:09.356Z,102277.75
2022-12-17T02:24:57.290Z,102272.00
2022-12-17T02:27:42.243Z,102273.94
2022-12-17T02:30:25.685Z,102282.31
2022-12-17T02:33:08.563Z,102284.53
2022-12-17T02:35:53.641Z,102278.13
2022-12-17T02:38:37.360Z,102276.22
2022-12-17T02:41:20.606Z,102287.50
2022-12-17T02:44:05.581Z,102294.56
2022-12-17T02:46:47.449Z,102283.78
2022-12-17T02:49:29.390Z,102290.63
2022-12-17T02:52:19.799Z,102283.34
2022-12-17T02:55:01.624Z,102279.25
2022-12-17T02:57:44.103Z,102286.75
2022-12-17T03:00:30.629Z,102284.31
2022-12-17T03:03:12.579Z,102289.34
2022-12-17T03:05:54.671Z,102282.06
2022-12-17T03:08:36.529Z,102282.47
2022-12-17T03:11:21.205Z,102288.81
2022-12-17T03:14:03.073Z,102297.31
2022-12-17T03:16:47.974Z,102298.13
2022-12-17T03:19:29.947Z,102307.81
2022-12-17T03:22:11.900Z,102302.78
2022-12-17T03:24:53.830Z,102304.81
2022-12-17T03:27:35.711Z,102306.44
2022-12-17T03:30:17.651Z,102309.69
2022-12-17T03:33:02.114Z,102313.00
2022-12-17T03:35:44.023Z,102307.97
2022-12-17T03:38:26.338Z,102302.53
2022-12-17T03:41:08.272Z,102298.41
2022-12-17T03:43:50.105Z,102291.69
2022-12-17T03:46:32.068Z,102300.03
2022-12-17T03:49:16.600Z,102291.97
2022-12-17T03:51:58.648Z,102292.69
2022-12-17T03:54:40.753Z,102298.34
2022-12-17T03:57:22.643Z,102292.38
2022-12-17T04:00:04.523Z,102298.94
2022-12-17T04:02:46.557Z,102293.50
2022-12-17T04:05:31.364Z,102286.84
2022-12-17T04:08:13.513Z,102284.16
2022-12-17T04:10:55.368Z,102282.22
2022-12-17T04:13:41.094Z,102280.84
2022-12-17T04:16:23.545Z,102284.94
2022-12-17T04:19:05.408Z,102281.13
2022-12-17T04:21:50.121Z,102271.06
2022-12-17T04:24:32.047Z,102268.56
2022-12-17T04:27:13.928Z,102267.75
2022-12-17T04:29:55.829Z,102246.91
2022-12-17T04:32:37.717Z,102200.94
2022-12-17T04:35:20.430Z,102198.94
2022-12-17T04:38:05.364Z,102164.56
2022-12-17T04:40:47.505Z,102175.69
2022-12-17T04:43:29.428Z,102204.78
2022-12-17T04:46:11.459Z,102239.38
2022-12-17T04:48:53.424Z,102288.00
2022-12-17T04:51:35.343Z,102312.59
2022-12-17T04:54:19.961Z,102342.00
2022-12-17T04:57:01.853Z,102364.44
2022-12-17T04:59:43.691Z,102364.25
2022-12-17T05:02:25.852Z,102382.88
2022-12-17T05:05:07.860Z,102378.00
2022-12-17T05:07:49.714Z,102378.13
2022-12-17T05:10:34.216Z,102356.25
2022-12-17T05:13:17.143Z,102352.34
2022-12-17T05:15:59.067Z,102347.69
2022-12-17T05:18:40.982Z,102348.53
2022-12-17T05:21:23.205Z,102356.59
2022-12-17T05:24:05.123Z,102373.13
2022-12-17T05:26:49.542Z,102382.66
2022-12-17T05:29:31.422Z,102385.69
2022-12-17T05:32:13.417Z,102391.72
2022-12-17T05:34:55.404Z,102398.56
2022-12-17T05:37:39.636Z,102400.97
2022-12-17T05:40:23.388Z,102398.47
2022-12-17T05:43:13.090Z,102392.34
2022-12-17T05:45:55.305Z,102390.84
2022-12-17T05:48:37.166Z,102395.97
2022-12-17T05:51:19.172Z,102391.16
2022-12-17T05:54:01.065Z,102392.47
2022-12-17T05:56:42.963Z,102395.06
2022-12-17T05:59:27.411Z,102398.38
2022-12-17T06:02:09.316Z,102396.75
2022-12-17T06:04:51.234Z,102406.94
2022-12-17T06:07:33.122Z,102407.44
2022-12-17T06:10:14.965Z,102401.59
2022-12-17T06:12:56.879Z,102404.28
2022-12-17T06:15:41.624Z,102409.25
2022-12-17T06:18:35.848Z,102410.22
2022-12-17T06:21:17.724Z,102411.81
2022-12-17T06:23:59.697Z,102412.03
2022-12-17T06:26:41.551Z,102414.59
2022-12-17T06:29:23.484Z,102416.50
2022-12-17T06:32:07.947Z,102415.66
2022-12-17T06:34:49.895Z,102422.91
2022-12-17T06:37:31.760Z,102418.16
2022-12-17T06:40:13.714Z,102419.84
2022-12-17T06:42:55.550Z,102423.97
2022-12-17T06:45:37.459Z,102425.25
2022-12-17T06:48:23.829Z,102419.41
2022-12-17T06:51:07.062Z,102429.94
2022-12-17T06:53:48.955Z,102420.72
2022-12-17T06:56:30.894Z,102422.25
2022-12-17T06:59:12.796Z,102420.88
2022-12-17T07:01:54.774Z,102418.66
2022-12-17T07:04:39.355Z,102431.13
2022-12-17T07:07:21.244Z,102431.84
2022-12-17T07:10:03.123Z,102441.41
2022-12-17T07:12:44.976Z,102453.84
2022-12-17T07:15:26.843Z,102456.53
2022-12-17T07:18:27.549Z,102453.50
2022-12-17T07:21:12.039Z,102455.72
2022-12-17T07:23:56.770Z,102458.00
2022-12-17T07:26:38.672Z,102461.72
2022-12-17T07:29:21.127Z,102465.38
2022-12-17T07:32:03.108Z,102465.94
2022-12-17T07:34:53.544Z,102466.06
2022-12-17T07:37:38.017Z,102468.47
2022-12-17T07:40:21.173Z,102475.38
2022-12-17T07:43:03.052Z,102470.44
2022-12-17T07:45:44.992Z,102479.22
2022-12-17T07:48:27.343Z,102478.91
2022-12-17T07:51:09.264Z,102478.19
2022-12-17T07:53:53.744Z,102480.72
2022-12-17T07:56:35.616Z,102488.16
2022-12-17T07:59:17.471Z,102496.28
2022-12-17T08:01:59.549Z,102487.38
2022-12-17T08:04:41.571Z,102498.09
2022-12-17T08:07:23.498Z,102502.34
2022-12-17T08:10:07.955Z,102506.03
2022-12-17T08:12:49.820Z,102508.56
2022-12-17T08:15:31.747Z,102515.91
2022-12-17T08:18:15.819Z,102516.53
2022-12-17T08:20:57.723Z,102516.28
2022-12-17T08:23:39.828Z,102524.91
2022-12-17T08:26:24.340Z,102523.59
2022-12-17T08:29:15.014Z,102524.09
2022-12-17T08:31:56.882Z,102531.00
2022-12-17T08:34:39.038Z,102529.59
2022-12-17T08:37:20.939Z,102524.16
2022-12-17T08:40:02.798Z,102532.13
2022-12-17T08:42:47.264Z,102532.31
2022-12-17T08:45:29.279Z,102537.13
2022-12-17T08:48:17.984Z,102542.88
2022-12-17T08:50:59.828Z,102541.19
2022-12-17T08:53:42.562Z,102533.66
2022-12-17T08:56:24.653Z,102530.88
2022-12-17T08:59:09.209Z,102520.94
2022-12-17T09:01:51.244Z,102520.66
2022-12-17T09:04:36.144Z,102508.50
2022-12-17T09:07:18.088Z,102502.91
2022-12-17T09:10:00.206Z,102504.00
2022-12-17T09:12:42.251Z,102491.06
2022-12-17T09:15:26.941Z,102485.03
2022-12-17T09:18:08.820Z,102497.31
2022-12-17T09:20:50.729Z,102489.69
2022-12-17T09:23:33.309Z,102478.63
2022-12-17T09:26:16.004Z,102470.47
2022-12-17T09:28:57.867Z,102464.84
2022-12-17T09:31:51.116Z,102445.81
2022-12-17T09:34:33.241Z,102433.22
2022-12-17T09:37:15.154Z,102428.19
2022-12-17T09:39:57.004Z,102421.09
2022-12-17T09:42:43.338Z,102421.09
2022-12-17T09:45:32.713Z,102410.72
2022-12-17T09:48:21.796Z,102408.88
2022-12-17T09:51:05.886Z,102400.00
2022-12-17T09:53:51.774Z,102401.31
2022-12-17T09:56:45.145Z,102399.25
2022-12-17T09:59:34.250Z,102397.84
2022-12-17T10:02:17.949Z,102393.44
2022-12-17T10:05:03.283Z,102395.91
2022-12-17T10:07:54.360Z,102390.88
2022-12-17T10:10:38.797Z,102385.69
2022-12-17T10:13:26.139Z,102389.91
2022-12-17T10:16:08.121Z,102386.16
2022-12-17T10:18:50.176Z,102389.31
2022-12-17T10:21:34.864Z,102400.94
2022-12-17T10:24:20.459Z,102407.78
2022-12-17T10:27:04.012Z,102402.09
2022-12-17T10:29:48.477Z,102404.78
2022-12-17T10:32:36.019Z,102399.31
2022-12-17T10:35:23.002Z,102406.53
2022-12-17T10:38:10.261Z,102423.69
2022-12-17T10:40:52.220Z,102424.97
2022-12-17T10:43:42.395Z,102438.56
2022-12-17T10:46:24.395Z,102438.78
2022-12-17T10:49:11.208Z,102447.53
2022-12-17T10:51:53.646Z,102460.22
2022-12-17T10:54:46.978Z,102467.22
2022-12-17T10:57:46.347Z,102480.22
2022-12-17T11:00:41.925Z,102493.72
2022-12-17T11:03:42.287Z,102503.38
2022-12-17T11:06:24.453Z,102508.50
2022-12-17T11:09:06.330Z,102517.69
2022-12-17T11:11:50.764Z,102524.66
2022-12-17T11:14:32.739Z,102535.50
2022-12-17T11:17:17.958Z,102551.06
2022-12-17T11:20:04.081Z,102552.13
2022-12-17T11:22:51.883Z,102565.19
2022-12-17T11:25:43.104Z,102568.88
2022-12-17T11:28:32.320Z,102582.59
2022-12-17T11:31:22.826Z,102593.09
2022-12-17T11:34:06.753Z,102595.81
2022-12-17T11:36:54.828Z,102611.53
2022-12-17T11:39:42.441Z,102615.53
2022-12-17T11:42:31.779Z,102623.38
2022-12-17T11:45:20.705Z,102646.34
2022-12-17T11:48:07.724Z,102646.91
2022-12-17T11:51:05.954Z,102644.38
2022-12-17T11:54:01.567Z,102639.56
2022-12-17T11:56:48.057Z,102629.47
2022-12-17T11:59:37.788Z,102569.81
2022-12-17T12:02:33.603Z,102528.78
2022-12-17T12:05:27.276Z,102498.25
2022-12-17T12:08:15.037Z,102488.31
2022-12-17T12:11:04.225Z,102487.41
2022-12-17T12:13:53.072Z,102467.09
2022-12-17T12:16:43.534Z,102442.16
2022-12-17T12:19:32.238Z,102412.13
2022-12-17T12:22:17.711Z,102397.59
2022-12-17T12:25:14.552Z,102356.72
2022-12-17T12:28:03.616Z,102338.84
2022-12-17T12:30:50.477Z,102319.47
2022-12-17T12:33:38.008Z,102294.88
2022-12-17T12:36:25.808Z,102271.69
2022-12-17T12:39:09.644Z,102263.03
2022-12-17T12:41:56.818Z,102240.44
2022-12-17T12:44:49.472Z,102233.75
2022-12-17T12:47:37.063Z,102221.78
2022-12-17T12:50:27.552Z,102207.25
2022-12-17T12:53:12.601Z,102201.25
2022-12-17T12:55:55.621Z,102179.16
2022-12-17T12:58:42.640Z,102167.69
2022-12-17T13:01:25.112Z,102151.22
2022-12-17T13:04:09.225Z,102150.72
2022-12-17T13:06:45.571Z,102128.34
2022-12-17T13:09:35.066Z,102116.78
2022-12-17T13:12:22.264Z,102118.25
2022-12-17T13:14:56.615Z,102102.25
2022-12-17T13:17:35.624Z,102090.38
2022-12-17T13:20:24.885Z,102083.78
2022-12-17T13:22:56.039Z,102085.47
2022-12-17T13:25:28.125Z,102067.94
2022-12-17T13:27:57.641Z,102072.88
2022-12-17T13:30:34.493Z,102066.28
2022-12-17T13:33:25.632Z,102072.75
2022-12-17T13:36:04.041Z,102078.53
2022-12-17T13:38:38.650Z,102084.72
2022-12-17T13:41:14.058Z,102083.94
2022-12-17T13:43:47.342Z,102087.59
2022-12-17T13:46:22.176Z,102095.78
2022-12-17T13:48:56.531Z,102095.13
2022-12-17T13:51:27.494Z,102101.16
2022-12-17T13:53:58.854Z,102099.25
2022-12-17T13:56:33.226Z,102101.09
2022-12-17T13:59:08.754Z,102093.97
2022-12-17T14:01:47.314Z,102102.81
2022-12-17T14:04:27.506Z,102097.34
2022-12-17T14:06:59.185Z,102106.66
2022-12-17T14:09:34.932Z,102107.88
2022-12-17T14:12:20.888Z,102114.44
2022-12-17T14:14:52.376Z,102114.81
2022-12-17T14:17:24.270Z,102123.88
2022-12-17T14:19:59.978Z,102133.03
2022-12-17T14:22:36.186Z,102139.59
2022-12-17T14:25:10.843Z,102151.00
2022-12-17T14:27:43.875Z,102153.00
2022-12-17T14:30:25.348Z,102153.97
2022-12-17T14:32:55.000Z,102152.94
2022-12-17T14:35:29.819Z,102154.66
2022-12-17T14:37:59.445Z,102166.34
2022-12-17T14:40:29.344Z,102171.75
2022-12-17T14:43:03.719Z,102178.53
2022-12-17T14:45:53.534Z,102177.47
2022-12-17T14:48:43.069Z,102178.97
2022-12-17T14:51:23.910Z,102192.91
2022-12-17T14:53:53.393Z,102203.63
2022-12-17T14:56:25.820Z,102200.75
2022-12-17T14:58:57.835Z,102200.38
2022-12-17T15:01:27.466Z,102213.38
2022-12-17T15:03:57.093Z,102218.47
2022-12-17T15:06:27.028Z,102221.00
2022-12-17T15:08:56.453Z,102223.16
2022-12-17T15:11:26.082Z,102235.28
2022-12-17T15:13:58.423Z,102250.06
2022-12-17T15:16:28.202Z,102252.06
2022-12-17T15:18:57.695Z,102265.44
2022-12-17T15:21:27.751Z,102266.16
2022-12-17T15:23:57.255Z,102269.41
2022-12-17T15:26:26.747Z,102269.75
2022-12-17T15:28:58.854Z,102271.00
2022-12-17T15:31:32.042Z,102274.06
2022-12-17T15:34:04.554Z,102278.78
2022-12-17T15:36:34.688Z,102282.19
2022-12-17T15:39:06.227Z,102283.09
2022-12-17T15:41:48.172Z,102291.38
2022-12-17T15:44:20.209Z,102286.69
2022-12-17T15:46:49.827Z,102293.56
2022-12-17T15:49:19.320Z,102299.47
2022-12-17T15:51:48.902Z,102301.84
2022-12-17T15:54:18.404Z,102312.09
2022-12-17T15:56:54.823Z,102328.16
2022-12-17T15:59:27.568Z,102329.25
2022-12-17T16:01:57.162Z,102338.28
2022-12-17T16:04:26.701Z,102334.09
2022-12-17T16:06:56.190Z,102342.59
2022-12-17T16:09:28.059Z,102342.78
2022-12-17T16:11:57.887Z,102346.19
2022-12-17T16:14:29.964Z,102350.97
2022-12-17T16:16:59.410Z,102349.13
2022-12-17T16:19:29.327Z,102352.53
2022-12-17T16:21:59.094Z,102348.38
2022-12-17T16:24:28.522Z,102346.78
2022-12-17T16:27:04.105Z,102342.59
2022-12-17T16:29:36.854Z,102344.50
2022-12-17T16:32:06.597Z,102330.72
2022-12-17T16:34:36.060Z,102334.69
2022-12-17T16:37:06.854Z,102343.88
2022-12-17T16:39:36.348Z,102335.72
2022-12-17T16:42:06.245Z,102339.88
2022-12-17T16:44:39.466Z,102337.88
2022-12-17T16:47:09.088Z,102341.53
2022-12-17T16:49:38.578Z,102341.88
2022-12-17T16:52:08.092Z,102345.88
2022-12-17T16:54:37.560Z,102343.31
2022-12-17T16:57:06.961Z,102343.97
2022-12-17T16:59:39.077Z,102348.91
2022-12-17T17:02:08.889Z,102344.03
2022-12-17T17:04:39.280Z,102341.78
2022-12-17T17:07:08.824Z,102346.31
2022-12-17T17:09:38.274Z,102358.38
2022-12-17T17:12:09.328Z,102359.47
2022-12-17T17:14:43.856Z,102368.09
2022-12-17T17:17:13.909Z,102371.63
2022-12-17T17:19:43.343Z,102380.56
2022-12-17T17:22:12.826Z,102378.00
2022-12-17T17:24:42.208Z,102390.66
2022-12-17T17:27:12.329Z,102401.44
2022-12-17T17:29:44.356Z,102409.69
2022-12-17T17:32:14.224Z,102418.84
2022-12-17T17:34:43.838Z,102409.78
2022-12-17T17:37:13.600Z,102417.88
2022-12-17T17:39:43.147Z,102425.81
2022-12-17T17:42:12.622Z,102421.38
2022-12-17T17:44:44.932Z,102425.41
2022-12-17T17:47:14.410Z,102431.88
2022-12-17T17:49:43.891Z,102432.91
2022-12-17T17:52:13.400Z,102437.69
2022-12-17T17:54:43.363Z,102437.09
2022-12-17T17:57:13.080Z,102437.16
2022-12-17T17:59:45.473Z,102434.31
2022-12-17T18:02:14.973Z,102434.19
2022-12-17T18:04:44.494Z,102433.22
2022-12-17T18:07:29.794Z,102436.28
2022-12-17T18:09:59.735Z,102437.59
2022-12-17T18:12:41.892Z,102445.53
2022-12-17T18:15:16.213Z,102458.06
2022-12-17T18:17:47.135Z,102463.94
2022-12-17T18:20:16.990Z,102465.09
2022-12-17T18:22:47.048Z,102471.56
2022-12-17T18:25:17.698Z,102481.06
2022-12-17T18:27:47.360Z,102476.91
2022-12-17T18:30:19.601Z,102481.66
2022-12-17T18:32:49.530Z,102486.56
2022-12-17T18:35:19.255Z,102492.03
2022-12-17T18:37:48.743Z,102486.69
2022-12-17T18:40:18.307Z,102494.19
2022-12-17T18:43:00.271Z,102502.34
2022-12-17T18:45:32.360Z,102500.63
2022-12-17T18:48:01.823Z,102512.06
2022-12-17T18:50:31.375Z,102548.34
2022-12-17T18:53:00.816Z,102551.28
2022-12-17T18:55:30.378Z,102519.50
2022-12-17T18:58:01.591Z,102523.66
2022-12-17T19:00:33.750Z,102514.78
2022-12-17T19:03:04.477Z,102520.34
2022-12-17T19:05:33.995Z,102518.75
2022-12-17T19:08:03.480Z,102530.50
2022-12-17T19:10:32.937Z,102528.41
2022-12-17T19:13:02.360Z,102523.78
2022-12-17T19:15:34.606Z,102528.44
2022-12-17T19:18:04.064Z,102530.53
2022-12-17T19:20:33.538Z,102538.59
2022-12-17T19:23:02.952Z,102546.88
2022-12-17T19:25:32.349Z,102549.16
2022-12-17T19:28:01.782Z,102560.88
2022-12-17T19:30:33.745Z,102557.75
2022-12-17T19:33:10.395Z,102557.16
2022-12-17T19:35:40.080Z,102553.94
2022-12-17T19:38:09.540Z,102552.00
2022-12-17T19:40:39.043Z,102557.13
2022-12-17T19:43:08.963Z,102571.94
2022-12-17T19:45:41.091Z,102566.28
2022-12-17T19:48:14.553Z,102571.44
2022-12-17T19:50:44.041Z,102567.41
2022-12-17T19:53:13.642Z,102562.47
2022-12-17T19:55:45.179Z,102566.81
2022-12-17T19:58:14.598Z,102561.28
2022-12-17T20:00:46.761Z,102578.31
2022-12-17T20:03:16.623Z,102584.19
2022-12-17T20:05:47.479Z,102595.66
2022-12-17T20:08:22.171Z,102597.06
2022-12-17T20:10:51.942Z,102600.09
2022-12-17T20:13:21.324Z,102597.25
2022-12-17T20:16:01.967Z,102596.34
2022-12-17T20:18:32.406Z,102588.88
2022-12-17T20:21:05.941Z,102585.19
2022-12-17T20:23:35.768Z,102583.94
2022-12-17T20:26:05.977Z,102589.69
2022-12-17T20:28:35.923Z,102591.50
2022-12-17T20:31:08.665Z,102598.19
2022-12-17T20:33:38.637Z,102603.28
2022-12-17T20:36:08.996Z,102598.75
2022-12-17T20:38:39.248Z,102602.69
2022-12-17T20:41:12.711Z,102607.28
2022-12-17T20:43:42.589Z,102616.97
2022-12-17T20:46:14.906Z,102626.91
2022-12-17T20:48:46.535Z,102640.28
2022-12-17T20:51:17.499Z,102646.44
2022-12-17T20:53:47.515Z,102644.03
2022-12-17T20:56:19.222Z,102658.78
2022-12-17T20:58:48.859Z,102658.59
2022-12-17T21:01:23.334Z,102666.47
2022-12-17T21:03:53.793Z,102673.69
2022-12-17T21:06:25.166Z,102669.53
2022-12-17T21:08:56.067Z,102679.53
2022-12-17T21:11:27.238Z,102676.78
2022-12-17T21:13:57.469Z,102685.50
2022-12-17T21:16:32.603Z,102691.69
2022-12-17T21:19:03.883Z,102698.78
2022-12-17T21:21:35.855Z,102706.81
2022-12-17T21:24:05.494Z,102706.38
2022-12-17T21:26:36.367Z,102720.28
2022-12-17T21:29:07.976Z,102721.22
2022-12-17T21:31:41.819Z,102721.75
2022-12-17T21:34:14.763Z,102724.84
2022-12-17T21:36:44.949Z,102736.38
2022-12-17T21:39:16.127Z,102736.19
2022-12-17T21:42:06.803Z,102737.44
2022-12-17T21:44:36.311Z,102740.88
2022-12-17T21:47:08.491Z,102743.91
2022-12-17T21:49:37.901Z,102745.41
2022-12-17T21:52:08.187Z,102744.28
2022-12-17T21:54:40.862Z,102748.78
2022-12-17T21:57:10.343Z,102754.91
2022-12-17T21:59:39.842Z,102753.25
2022-12-17T22:02:12.546Z,102756.59
2022-12-17T22:04:42.562Z,102760.66
2022-12-17T22:07:12.151Z,102750.47
2022-12-17T22:10:18.123Z,102757.94
2022-12-17T22:12:47.942Z,102744.94
2022-12-17T22:15:17.416Z,102747.63
2022-12-17T22:17:50.113Z,102748.34
2022-12-17T22:20:19.652Z,102742.53
2022-12-17T22:22:49.169Z,102732.47
2022-12-17T22:25:19.124Z,102722.47
2022-12-17T22:27:48.725Z,102727.63
2022-12-17T22:30:32.066Z,102725.69
2022-12-17T22:33:08.558Z,102726.25
2022-12-17T22:39:18.464Z,102721.75
2022-12-17T22:43:49.865Z,102722.91
2022-12-17T22:44:30.915Z,102721.91
2022-12-17T22:44:51.918Z,102714.72
2022-12-17T22:47:22.687Z,102719.38
2022-12-17T22:49:54.701Z,102722.72
2022-12-17T22:52:24.767Z,102725.50
2022-12-17T22:54:54.489Z,102726.06
2022-12-17T22:57:36.847Z,102732.09
2022-12-17T23:00:11.064Z,102725.13
2022-12-17T23:02:40.741Z,102732.53
2022-12-17T23:05:13.023Z,102729.03
2022-12-17T23:07:42.395Z,102717.22
2022-12-17T23:10:12.633Z,102716.38
2022-12-17T23:12:54.933Z,102713.31
2022-12-17T23:15:27.634Z,102713.78
2022-12-17T23:17:59.815Z,102717.56
2022-12-17T23:20:34.516Z,102710.03
2022-12-17T23:23:03.989Z,102713.53
2022-12-17T23:25:33.640Z,102702.28
2022-12-17T23:28:03.074Z,102690.41
2022-12-17T23:30:32.503Z,102688.16
2022-12-17T23:33:01.943Z,102695.59
2022-12-17T23:35:34.286Z,102692.81
2022-12-17T23:38:03.750Z,102688.34
2022-12-17T23:40:33.175Z,102687.22
2022-12-17T23:43:02.819Z,102686.03
2022-12-17T23:45:32.316Z,102686.81
2022-12-17T23:48:01.703Z,102684.41
2022-12-17T23:50:33.727Z,102692.41
2022-12-17T23:53:03.075Z,102703.13
2022-12-17T23:55:32.499Z,102698.66
2022-12-17T23:58:01.893Z,102698.25
